sensor_id;sensor_type;location;lat;lon;timestamp;pressure;altitude;pressure_sealevel;temperature
7389;BMP180;3735;50.136;11.062;2023-09-19T00:00:20;97599.00;;;14.50
7389;BMP180;3735;50.136;11.062;2023-09-19T00:02:56;97594.00;;;14.50
7389;BMP180;3735;50.136;11.062;2023-09-19T00:05:23;97604.00;;;14.50
7389;BMP180;3735;50.136;11.062;2023-09-19T00:07:53;97603.00;;;14.30
7389;BMP180;3735;50.136;11.062;2023-09-19T00:10:29;97596.00;;;14.30
7389;BMP180;3735;50.136;11.062;2023-09-19T00:13:02;97599.00;;;14.20
7389;BMP180;3735;50.136;11.062;2023-09-19T00:15:43;97609.00;;;14.20
7389;BMP180;3735;50.136;11.062;2023-09-19T00:18:14;97600.00;;;14.20
7389;BMP180;3735;50.136;11.062;2023-09-19T00:20:41;97589.00;;;14.10
7389;BMP180;3735;50.136;11.062;2023-09-19T00:23:07;97596.00;;;14.00
7389;BMP180;3735;50.136;11.062;2023-09-19T00:25:37;97576.00;;;14.00
7389;BMP180;3735;50.136;11.062;2023-09-19T00:28:04;97593.00;;;13.90
7389;BMP180;3735;50.136;11.062;2023-09-19T00:30:31;97591.00;;;14.00
7389;BMP180;3735;50.136;11.062;2023-09-19T00:32:58;97595.00;;;13.90
7389;BMP180;3735;50.136;11.062;2023-09-19T00:35:24;97588.00;;;13.90
7389;BMP180;3735;50.136;11.062;2023-09-19T00:37:51;97586.00;;;13.90
7389;BMP180;3735;50.136;11.062;2023-09-19T00:40:17;97583.00;;;13.90
7389;BMP180;3735;50.136;11.062;2023-09-19T00:42:44;97596.00;;;13.80
7389;BMP180;3735;50.136;11.062;2023-09-19T00:45:14;97594.00;;;13.70
7389;BMP180;3735;50.136;11.062;2023-09-19T00:47:44;97594.00;;;13.70
7389;BMP180;3735;50.136;11.062;2023-09-19T00:50:13;97597.00;;;13.70
7389;BMP180;3735;50.136;11.062;2023-09-19T00:52:42;97594.00;;;13.80
7389;BMP180;3735;50.136;11.062;2023-09-19T00:55:10;97601.00;;;13.80
7389;BMP180;3735;50.136;11.062;2023-09-19T00:57:38;97603.00;;;13.80
7389;BMP180;3735;50.136;11.062;2023-09-19T01:00:09;97604.00;;;13.80
7389;BMP180;3735;50.136;11.062;2023-09-19T01:02:42;97609.00;;;13.70
7389;BMP180;3735;50.136;11.062;2023-09-19T01:05:11;97612.00;;;13.80
7389;BMP180;3735;50.136;11.062;2023-09-19T01:07:41;97610.00;;;13.80
7389;BMP180;3735;50.136;11.062;2023-09-19T01:10:13;97611.00;;;13.80
7389;BMP180;3735;50.136;11.062;2023-09-19T01:18:50;97620.00;;;14.00
7389;BMP180;3735;50.136;11.062;2023-09-19T01:30:17;97623.00;;;14.10
7389;BMP180;3735;50.136;11.062;2023-09-19T01:32:50;97629.00;;;14.20
7389;BMP180;3735;50.136;11.062;2023-09-19T01:35:18;97641.00;;;14.10
7389;BMP180;3735;50.136;11.062;2023-09-19T01:37:45;97643.00;;;14.10
7389;BMP180;3735;50.136;11.062;2023-09-19T01:40:18;97641.00;;;14.00
7389;BMP180;3735;50.136;11.062;2023-09-19T01:46:05;97643.00;;;14.10
7389;BMP180;3735;50.136;11.062;2023-09-19T01:51:29;97653.00;;;14.10
7389;BMP180;3735;50.136;11.062;2023-09-19T01:54:06;97662.00;;;14.20
7389;BMP180;3735;50.136;11.062;2023-09-19T01:56:59;97653.00;;;14.30
7389;BMP180;3735;50.136;11.062;2023-09-19T01:59:37;97653.00;;;14.30
7389;BMP180;3735;50.136;11.062;2023-09-19T02:02:05;97655.00;;;14.40
7389;BMP180;3735;50.136;11.062;2023-09-19T02:04:33;97658.00;;;14.80
7389;BMP180;3735;50.136;11.062;2023-09-19T02:07:00;97651.00;;;14.90
7389;BMP180;3735;50.136;11.062;2023-09-19T02:09:26;97646.00;;;15.00
7389;BMP180;3735;50.136;11.062;2023-09-19T02:11:52;97642.00;;;15.10
7389;BMP180;3735;50.136;11.062;2023-09-19T02:14:18;97648.00;;;15.20
7389;BMP180;3735;50.136;11.062;2023-09-19T02:16:45;97647.00;;;15.30
7389;BMP180;3735;50.136;11.062;2023-09-19T02:19:11;97658.00;;;15.30
7389;BMP180;3735;50.136;11.062;2023-09-19T02:21:37;97651.00;;;15.40
7389;BMP180;3735;50.136;11.062;2023-09-19T02:24:06;97659.00;;;15.40
7389;BMP180;3735;50.136;11.062;2023-09-19T02:26:33;97651.00;;;15.60
7389;BMP180;3735;50.136;11.062;2023-09-19T02:29:01;97651.00;;;15.70
7389;BMP180;3735;50.136;11.062;2023-09-19T02:31:30;97644.00;;;15.70
7389;BMP180;3735;50.136;11.062;2023-09-19T02:33:57;97645.00;;;15.80
7389;BMP180;3735;50.136;11.062;2023-09-19T02:36:23;97642.00;;;15.90
7389;BMP180;3735;50.136;11.062;2023-09-19T02:38:49;97645.00;;;16.00
7389;BMP180;3735;50.136;11.062;2023-09-19T02:41:15;97644.00;;;16.00
7389;BMP180;3735;50.136;11.062;2023-09-19T02:43:41;97639.00;;;16.10
7389;BMP180;3735;50.136;11.062;2023-09-19T02:46:08;97630.00;;;16.10
7389;BMP180;3735;50.136;11.062;2023-09-19T02:48:34;97635.00;;;16.00
7389;BMP180;3735;50.136;11.062;2023-09-19T02:51:01;97633.00;;;15.90
7389;BMP180;3735;50.136;11.062;2023-09-19T02:53:29;97642.00;;;15.90
7389;BMP180;3735;50.136;11.062;2023-09-19T02:55:56;97641.00;;;15.90
7389;BMP180;3735;50.136;11.062;2023-09-19T02:58:22;97637.00;;;15.90
7389;BMP180;3735;50.136;11.062;2023-09-19T03:00:49;97642.00;;;15.90
7389;BMP180;3735;50.136;11.062;2023-09-19T03:03:17;97635.00;;;15.90
7389;BMP180;3735;50.136;11.062;2023-09-19T03:05:43;97644.00;;;15.80
7389;BMP180;3735;50.136;11.062;2023-09-19T03:08:14;97639.00;;;15.90
7389;BMP180;3735;50.136;11.062;2023-09-19T03:10:42;97639.00;;;15.80
7389;BMP180;3735;50.136;11.062;2023-09-19T03:13:08;97643.00;;;15.80
7389;BMP180;3735;50.136;11.062;2023-09-19T03:15:36;97661.00;;;15.70
7389;BMP180;3735;50.136;11.062;2023-09-19T03:18:04;97661.00;;;15.70
7389;BMP180;3735;50.136;11.062;2023-09-19T03:20:31;97667.00;;;15.70
7389;BMP180;3735;50.136;11.062;2023-09-19T03:22:57;97674.00;;;15.70
7389;BMP180;3735;50.136;11.062;2023-09-19T03:25:23;97679.00;;;15.60
7389;BMP180;3735;50.136;11.062;2023-09-19T03:27:50;97678.00;;;15.50
7389;BMP180;3735;50.136;11.062;2023-09-19T03:30:15;97674.00;;;15.50
7389;BMP180;3735;50.136;11.062;2023-09-19T03:32:48;97674.00;;;15.40
7389;BMP180;3735;50.136;11.062;2023-09-19T03:35:16;97675.00;;;15.50
7389;BMP180;3735;50.136;11.062;2023-09-19T03:37:43;97676.00;;;15.50
7389;BMP180;3735;50.136;11.062;2023-09-19T03:40:10;97673.00;;;15.50
7389;BMP180;3735;50.136;11.062;2023-09-19T03:42:40;97683.00;;;15.50
7389;BMP180;3735;50.136;11.062;2023-09-19T03:45:08;97681.00;;;15.50
7389;BMP180;3735;50.136;11.062;2023-09-19T03:47:38;97676.00;;;15.60
7389;BMP180;3735;50.136;11.062;2023-09-19T03:50:06;97672.00;;;15.60
7389;BMP180;3735;50.136;11.062;2023-09-19T03:52:34;97677.00;;;15.60
7389;BMP180;3735;50.136;11.062;2023-09-19T03:55:00;97674.00;;;15.70
7389;BMP180;3735;50.136;11.062;2023-09-19T03:57:26;97682.00;;;15.80
7389;BMP180;3735;50.136;11.062;2023-09-19T03:59:52;97678.00;;;15.80
7389;BMP180;3735;50.136;11.062;2023-09-19T04:02:20;97675.00;;;15.90
7389;BMP180;3735;50.136;11.062;2023-09-19T04:04:53;97688.00;;;15.90
7389;BMP180;3735;50.136;11.062;2023-09-19T04:07:19;97681.00;;;15.90
7389;BMP180;3735;50.136;11.062;2023-09-19T04:09:48;97683.00;;;15.90
7389;BMP180;3735;50.136;11.062;2023-09-19T04:12:15;97696.00;;;15.80
7389;BMP180;3735;50.136;11.062;2023-09-19T04:14:43;97676.00;;;15.80
7389;BMP180;3735;50.136;11.062;2023-09-19T04:17:09;97701.00;;;15.80
7389;BMP180;3735;50.136;11.062;2023-09-19T04:19:36;97705.00;;;15.90
7389;BMP180;3735;50.136;11.062;2023-09-19T04:22:02;97707.00;;;15.90
7389;BMP180;3735;50.136;11.062;2023-09-19T04:24:29;97703.00;;;15.90
7389;BMP180;3735;50.136;11.062;2023-09-19T04:26:54;97697.00;;;15.90
7389;BMP180;3735;50.136;11.062;2023-09-19T04:29:20;97709.00;;;15.90
7389;BMP180;3735;50.136;11.062;2023-09-19T04:31:46;97708.00;;;15.90
7389;BMP180;3735;50.136;11.062;2023-09-19T04:34:12;97706.00;;;15.80
7389;BMP180;3735;50.136;11.062;2023-09-19T04:36:41;97716.00;;;15.80
7389;BMP180;3735;50.136;11.062;2023-09-19T04:39:07;97718.00;;;16.00
7389;BMP180;3735;50.136;11.062;2023-09-19T04:41:33;97724.00;;;16.00
7389;BMP180;3735;50.136;11.062;2023-09-19T04:44:00;97710.00;;;16.00
7389;BMP180;3735;50.136;11.062;2023-09-19T04:46:25;97714.00;;;16.10
7389;BMP180;3735;50.136;11.062;2023-09-19T04:48:51;97721.00;;;16.10
7389;BMP180;3735;50.136;11.062;2023-09-19T04:51:17;97728.00;;;16.10
7389;BMP180;3735;50.136;11.062;2023-09-19T04:53:44;97727.00;;;16.20
7389;BMP180;3735;50.136;11.062;2023-09-19T04:56:10;97728.00;;;16.20
7389;BMP180;3735;50.136;11.062;2023-09-19T04:58:35;97735.00;;;16.30
7389;BMP180;3735;50.136;11.062;2023-09-19T05:01:01;97729.00;;;16.30
7389;BMP180;3735;50.136;11.062;2023-09-19T05:03:27;97738.00;;;16.30
7389;BMP180;3735;50.136;11.062;2023-09-19T05:05:53;97731.00;;;16.40
7389;BMP180;3735;50.136;11.062;2023-09-19T05:08:19;97724.00;;;16.40
7389;BMP180;3735;50.136;11.062;2023-09-19T05:10:45;97737.00;;;16.40
7389;BMP180;3735;50.136;11.062;2023-09-19T05:13:11;97750.00;;;16.40
7389;BMP180;3735;50.136;11.062;2023-09-19T05:15:37;97751.00;;;16.30
7389;BMP180;3735;50.136;11.062;2023-09-19T05:18:03;97751.00;;;16.40
7389;BMP180;3735;50.136;11.062;2023-09-19T05:20:29;97744.00;;;16.40
7389;BMP180;3735;50.136;11.062;2023-09-19T05:23:03;97745.00;;;16.40
7389;BMP180;3735;50.136;11.062;2023-09-19T05:25:34;97757.00;;;16.30
7389;BMP180;3735;50.136;11.062;2023-09-19T05:28:04;97758.00;;;16.30
7389;BMP180;3735;50.136;11.062;2023-09-19T05:30:32;97756.00;;;16.40
7389;BMP180;3735;50.136;11.062;2023-09-19T05:32:58;97770.00;;;16.40
7389;BMP180;3735;50.136;11.062;2023-09-19T05:35:25;97773.00;;;16.40
7389;BMP180;3735;50.136;11.062;2023-09-19T05:37:53;97772.00;;;16.40
7389;BMP180;3735;50.136;11.062;2023-09-19T05:40:20;97755.00;;;16.40
7389;BMP180;3735;50.136;11.062;2023-09-19T05:42:46;97769.00;;;16.40
7389;BMP180;3735;50.136;11.062;2023-09-19T05:45:13;97778.00;;;16.40
7389;BMP180;3735;50.136;11.062;2023-09-19T05:47:43;97782.00;;;16.30
7389;BMP180;3735;50.136;11.062;2023-09-19T05:50:11;97778.00;;;16.20
7389;BMP180;3735;50.136;11.062;2023-09-19T05:52:38;97783.00;;;16.50
7389;BMP180;3735;50.136;11.062;2023-09-19T05:55:05;97772.00;;;17.40
7389;BMP180;3735;50.136;11.062;2023-09-19T05:57:35;97773.00;;;18.30
7389;BMP180;3735;50.136;11.062;2023-09-19T06:00:01;97783.00;;;18.50
7389;BMP180;3735;50.136;11.062;2023-09-19T06:02:27;97787.00;;;18.50
7389;BMP180;3735;50.136;11.062;2023-09-19T06:04:54;97789.00;;;19.00
7389;BMP180;3735;50.136;11.062;2023-09-19T06:07:22;97780.00;;;19.60
7389;BMP180;3735;50.136;11.062;2023-09-19T06:09:52;97792.00;;;20.50
7389;BMP180;3735;50.136;11.062;2023-09-19T06:12:19;97795.00;;;20.60
7389;BMP180;3735;50.136;11.062;2023-09-19T06:14:45;97790.00;;;21.10
7389;BMP180;3735;50.136;11.062;2023-09-19T06:17:11;97794.00;;;21.70
7389;BMP180;3735;50.136;11.062;2023-09-19T06:19:37;97806.00;;;22.10
7389;BMP180;3735;50.136;11.062;2023-09-19T06:22:03;97798.00;;;21.80
7389;BMP180;3735;50.136;11.062;2023-09-19T06:24:29;97795.00;;;21.80
7389;BMP180;3735;50.136;11.062;2023-09-19T06:26:55;97804.00;;;22.60
7389;BMP180;3735;50.136;11.062;2023-09-19T06:29:20;97805.00;;;22.50
7389;BMP180;3735;50.136;11.062;2023-09-19T06:31:48;97807.00;;;23.30
7389;BMP180;3735;50.136;11.062;2023-09-19T06:34:14;97806.00;;;23.50
7389;BMP180;3735;50.136;11.062;2023-09-19T06:36:41;97805.00;;;23.60
7389;BMP180;3735;50.136;11.062;2023-09-19T06:39:08;97806.00;;;23.90
7389;BMP180;3735;50.136;11.062;2023-09-19T06:41:37;97805.00;;;24.00
7389;BMP180;3735;50.136;11.062;2023-09-19T06:44:05;97809.00;;;23.40
7389;BMP180;3735;50.136;11.062;2023-09-19T06:46:31;97812.00;;;23.00
7389;BMP180;3735;50.136;11.062;2023-09-19T06:49:01;97819.00;;;22.10
7389;BMP180;3735;50.136;11.062;2023-09-19T06:51:32;97830.00;;;21.20
7389;BMP180;3735;50.136;11.062;2023-09-19T06:54:01;97813.00;;;20.50
7389;BMP180;3735;50.136;11.062;2023-09-19T06:56:27;97842.00;;;19.90
7389;BMP180;3735;50.136;11.062;2023-09-19T06:58:53;97845.00;;;19.60
7389;BMP180;3735;50.136;11.062;2023-09-19T07:01:18;97846.00;;;19.00
7389;BMP180;3735;50.136;11.062;2023-09-19T07:03:44;97859.00;;;18.80
7389;BMP180;3735;50.136;11.062;2023-09-19T07:06:11;97858.00;;;18.60
7389;BMP180;3735;50.136;11.062;2023-09-19T07:08:37;97850.00;;;18.90
7389;BMP180;3735;50.136;11.062;2023-09-19T07:11:04;97850.00;;;19.50
7389;BMP180;3735;50.136;11.062;2023-09-19T07:13:31;97844.00;;;20.60
7389;BMP180;3735;50.136;11.062;2023-09-19T07:15:59;97853.00;;;20.30
7389;BMP180;3735;50.136;11.062;2023-09-19T07:18:25;97847.00;;;20.10
7389;BMP180;3735;50.136;11.062;2023-09-19T07:20:51;97860.00;;;19.90
7389;BMP180;3735;50.136;11.062;2023-09-19T07:23:27;97865.00;;;19.50
7389;BMP180;3735;50.136;11.062;2023-09-19T07:25:57;97875.00;;;19.60
7389;BMP180;3735;50.136;11.062;2023-09-19T07:28:24;97876.00;;;19.20
7389;BMP180;3735;50.136;11.062;2023-09-19T07:30:50;97888.00;;;19.00
7389;BMP180;3735;50.136;11.062;2023-09-19T07:33:15;97882.00;;;19.00
7389;BMP180;3735;50.136;11.062;2023-09-19T07:35:46;97889.00;;;18.80
7389;BMP180;3735;50.136;11.062;2023-09-19T07:38:12;97898.00;;;18.60
7389;BMP180;3735;50.136;11.062;2023-09-19T07:40:39;97901.00;;;18.60
7389;BMP180;3735;50.136;11.062;2023-09-19T07:43:05;97905.00;;;18.60
7389;BMP180;3735;50.136;11.062;2023-09-19T07:45:32;97907.00;;;18.70
7389;BMP180;3735;50.136;11.062;2023-09-19T07:47:58;97917.00;;;18.80
7389;BMP180;3735;50.136;11.062;2023-09-19T07:50:27;97909.00;;;18.70
7389;BMP180;3735;50.136;11.062;2023-09-19T07:52:52;97920.00;;;18.60
7389;BMP180;3735;50.136;11.062;2023-09-19T07:55:20;97917.00;;;18.50
7389;BMP180;3735;50.136;11.062;2023-09-19T07:57:49;97934.00;;;18.50
7389;BMP180;3735;50.136;11.062;2023-09-19T08:00:15;97932.00;;;18.20
7389;BMP180;3735;50.136;11.062;2023-09-19T08:02:43;97935.00;;;18.50
7389;BMP180;3735;50.136;11.062;2023-09-19T08:05:12;97931.00;;;20.00
7389;BMP180;3735;50.136;11.062;2023-09-19T08:07:44;97929.00;;;21.30
7389;BMP180;3735;50.136;11.062;2023-09-19T08:10:14;97921.00;;;21.60
7389;BMP180;3735;50.136;11.062;2023-09-19T08:12:42;97916.00;;;21.20
7389;BMP180;3735;50.136;11.062;2023-09-19T08:17:39;97935.00;;;21.00
7389;BMP180;3735;50.136;11.062;2023-09-19T08:20:09;97928.00;;;20.60
7389;BMP180;3735;50.136;11.062;2023-09-19T08:22:50;97933.00;;;20.20
7389;BMP180;3735;50.136;11.062;2023-09-19T08:25:23;97929.00;;;20.60
7389;BMP180;3735;50.136;11.062;2023-09-19T08:27:50;97934.00;;;21.70
7389;BMP180;3735;50.136;11.062;2023-09-19T08:30:19;97935.00;;;22.20
7389;BMP180;3735;50.136;11.062;2023-09-19T08:33:01;97940.00;;;22.70
7389;BMP180;3735;50.136;11.062;2023-09-19T08:35:28;97938.00;;;23.10
7389;BMP180;3735;50.136;11.062;2023-09-19T08:37:54;97923.00;;;22.90
7389;BMP180;3735;50.136;11.062;2023-09-19T08:40:21;97934.00;;;23.10
7389;BMP180;3735;50.136;11.062;2023-09-19T08:42:55;97934.00;;;23.10
7389;BMP180;3735;50.136;11.062;2023-09-19T08:45:24;97927.00;;;23.20
7389;BMP180;3735;50.136;11.062;2023-09-19T08:51:02;97936.00;;;22.40
7389;BMP180;3735;50.136;11.062;2023-09-19T08:53:58;97937.00;;;22.30
7389;BMP180;3735;50.136;11.062;2023-09-19T08:56:26;97949.00;;;22.40
7389;BMP180;3735;50.136;11.062;2023-09-19T08:59:06;97947.00;;;22.00
7389;BMP180;3735;50.136;11.062;2023-09-19T09:01:37;97946.00;;;22.20
7389;BMP180;3735;50.136;11.062;2023-09-19T09:04:09;97950.00;;;21.90
7389;BMP180;3735;50.136;11.062;2023-09-19T09:06:39;97957.00;;;22.70
7389;BMP180;3735;50.136;11.062;2023-09-19T09:09:09;97951.00;;;22.80
7389;BMP180;3735;50.136;11.062;2023-09-19T09:11:35;97952.00;;;23.10
7389;BMP180;3735;50.136;11.062;2023-09-19T09:14:06;97965.00;;;23.30
7389;BMP180;3735;50.136;11.062;2023-09-19T09:16:35;97965.00;;;23.40
7389;BMP180;3735;50.136;11.062;2023-09-19T09:19:01;97967.00;;;22.60
7389;BMP180;3735;50.136;11.062;2023-09-19T09:21:27;97973.00;;;22.70
7389;BMP180;3735;50.136;11.062;2023-09-19T09:23:54;97966.00;;;21.80
7389;BMP180;3735;50.136;11.062;2023-09-19T09:29:04;97977.00;;;21.90
7389;BMP180;3735;50.136;11.062;2023-09-19T09:31:30;97975.00;;;21.80
7389;BMP180;3735;50.136;11.062;2023-09-19T09:33:57;97977.00;;;22.20
7389;BMP180;3735;50.136;11.062;2023-09-19T09:36:40;97976.00;;;22.70
7389;BMP180;3735;50.136;11.062;2023-09-19T09:39:09;97976.00;;;21.60
7389;BMP180;3735;50.136;11.062;2023-09-19T09:41:42;97976.00;;;21.50
7389;BMP180;3735;50.136;11.062;2023-09-19T09:44:18;97980.00;;;22.10
7389;BMP180;3735;50.136;11.062;2023-09-19T09:46:48;97973.00;;;22.60
7389;BMP180;3735;50.136;11.062;2023-09-19T09:49:27;97978.00;;;22.90
7389;BMP180;3735;50.136;11.062;2023-09-19T09:52:07;97984.00;;;22.80
7389;BMP180;3735;50.136;11.062;2023-09-19T09:55:00;97976.00;;;22.50
7389;BMP180;3735;50.136;11.062;2023-09-19T09:57:27;97956.00;;;23.00
7389;BMP180;3735;50.136;11.062;2023-09-19T09:59:58;97972.00;;;22.50
7389;BMP180;3735;50.136;11.062;2023-09-19T10:02:35;97987.00;;;22.40
7389;BMP180;3735;50.136;11.062;2023-09-19T10:05:20;97984.00;;;22.20
7389;BMP180;3735;50.136;11.062;2023-09-19T10:07:50;97994.00;;;22.40
7389;BMP180;3735;50.136;11.062;2023-09-19T10:13:13;97988.00;;;23.50
7389;BMP180;3735;50.136;11.062;2023-09-19T10:15:44;97991.00;;;23.30
7389;BMP180;3735;50.136;11.062;2023-09-19T10:18:27;97993.00;;;22.50
7389;BMP180;3735;50.136;11.062;2023-09-19T10:20:56;97992.00;;;22.80
7389;BMP180;3735;50.136;11.062;2023-09-19T10:23:22;97967.00;;;23.10
7389;BMP180;3735;50.136;11.062;2023-09-19T10:25:53;97994.00;;;23.10
7389;BMP180;3735;50.136;11.062;2023-09-19T10:28:21;97998.00;;;23.20
7389;BMP180;3735;50.136;11.062;2023-09-19T10:30:53;97996.00;;;24.00
7389;BMP180;3735;50.136;11.062;2023-09-19T10:33:24;97981.00;;;23.70
7389;BMP180;3735;50.136;11.062;2023-09-19T10:35:58;97983.00;;;24.30
7389;BMP180;3735;50.136;11.062;2023-09-19T10:38:27;97981.00;;;24.40
7389;BMP180;3735;50.136;11.062;2023-09-19T10:40:56;97991.00;;;24.20
7389;BMP180;3735;50.136;11.062;2023-09-19T10:43:30;97985.00;;;23.20
7389;BMP180;3735;50.136;11.062;2023-09-19T10:46:01;97975.00;;;22.40
7389;BMP180;3735;50.136;11.062;2023-09-19T10:48:31;97971.00;;;22.70
7389;BMP180;3735;50.136;11.062;2023-09-19T10:51:16;97976.00;;;22.20
7389;BMP180;3735;50.136;11.062;2023-09-19T10:54:05;97986.00;;;21.60
7389;BMP180;3735;50.136;11.062;2023-09-19T10:56:38;97970.00;;;21.90
7389;BMP180;3735;50.136;11.062;2023-09-19T10:59:14;97976.00;;;22.30
7389;BMP180;3735;50.136;11.062;2023-09-19T11:01:48;97972.00;;;22.50
7389;BMP180;3735;50.136;11.062;2023-09-19T11:04:31;97964.00;;;23.10
7389;BMP180;3735;50.136;11.062;2023-09-19T11:09:55;97958.00;;;23.30
7389;BMP180;3735;50.136;11.062;2023-09-19T11:26:48;97966.00;;;23.30
7389;BMP180;3735;50.136;11.062;2023-09-19T11:29:30;97954.00;;;23.00
7389;BMP180;3735;50.136;11.062;2023-09-19T11:31:59;97969.00;;;23.10
7389;BMP180;3735;50.136;11.062;2023-09-19T11:34:38;97972.00;;;23.30
7389;BMP180;3735;50.136;11.062;2023-09-19T11:40:24;97980.00;;;23.00
7389;BMP180;3735;50.136;11.062;2023-09-19T11:42:47;97981.00;;;23.10
7389;BMP180;3735;50.136;11.062;2023-09-19T11:48:18;97979.00;;;23.60
7389;BMP180;3735;50.136;11.062;2023-09-19T11:50:45;97959.00;;;23.40
7389;BMP180;3735;50.136;11.062;2023-09-19T11:53:13;97971.00;;;23.40
7389;BMP180;3735;50.136;11.062;2023-09-19T11:55:43;97976.00;;;23.90
7389;BMP180;3735;50.136;11.062;2023-09-19T11:58:09;97971.00;;;23.70
7389;BMP180;3735;50.136;11.062;2023-09-19T12:00:39;97971.00;;;23.80
7389;BMP180;3735;50.136;11.062;2023-09-19T12:03:11;97972.00;;;23.80
7389;BMP180;3735;50.136;11.062;2023-09-19T12:05:37;97968.00;;;23.40
7389;BMP180;3735;50.136;11.062;2023-09-19T12:08:05;97981.00;;;23.10
7389;BMP180;3735;50.136;11.062;2023-09-19T12:10:54;97984.00;;;23.70
7389;BMP180;3735;50.136;11.062;2023-09-19T12:13:23;97984.00;;;24.30
7389;BMP180;3735;50.136;11.062;2023-09-19T12:15:49;97974.00;;;23.80
7389;BMP180;3735;50.136;11.062;2023-09-19T12:18:28;97981.00;;;23.40
7389;BMP180;3735;50.136;11.062;2023-09-19T12:20:55;97984.00;;;23.50
7389;BMP180;3735;50.136;11.062;2023-09-19T12:23:23;97958.00;;;23.50
7389;BMP180;3735;50.136;11.062;2023-09-19T12:25:49;97986.00;;;22.90
7389;BMP180;3735;50.136;11.062;2023-09-19T12:28:20;97979.00;;;23.10
7389;BMP180;3735;50.136;11.062;2023-09-19T12:30:48;97966.00;;;23.20
7389;BMP180;3735;50.136;11.062;2023-09-19T12:33:19;97971.00;;;23.60
7389;BMP180;3735;50.136;11.062;2023-09-19T12:35:51;97963.00;;;23.60
7389;BMP180;3735;50.136;11.062;2023-09-19T12:38:27;97966.00;;;23.80
7389;BMP180;3735;50.136;11.062;2023-09-19T12:40:56;97970.00;;;23.80
7389;BMP180;3735;50.136;11.062;2023-09-19T12:43:24;97964.00;;;23.60
7389;BMP180;3735;50.136;11.062;2023-09-19T12:45:50;97962.00;;;24.00
7389;BMP180;3735;50.136;11.062;2023-09-19T12:48:26;97962.00;;;24.40
7389;BMP180;3735;50.136;11.062;2023-09-19T12:51:01;97962.00;;;24.20
7389;BMP180;3735;50.136;11.062;2023-09-19T12:53:29;97945.00;;;24.10
7389;BMP180;3735;50.136;11.062;2023-09-19T12:56:01;97971.00;;;24.00
7389;BMP180;3735;50.136;11.062;2023-09-19T12:58:28;97969.00;;;23.90
7389;BMP180;3735;50.136;11.062;2023-09-19T13:00:56;97958.00;;;23.70
7389;BMP180;3735;50.136;11.062;2023-09-19T13:03:25;97963.00;;;24.70
7389;BMP180;3735;50.136;11.062;2023-09-19T13:06:01;97959.00;;;24.60
7389;BMP180;3735;50.136;11.062;2023-09-19T13:09:08;97973.00;;;24.80
7389;BMP180;3735;50.136;11.062;2023-09-19T13:11:38;97958.00;;;25.20
7389;BMP180;3735;50.136;11.062;2023-09-19T13:14:24;97950.00;;;25.20
7389;BMP180;3735;50.136;11.062;2023-09-19T13:17:03;97958.00;;;24.00
7389;BMP180;3735;50.136;11.062;2023-09-19T13:22:37;97959.00;;;24.60
7389;BMP180;3735;50.136;11.062;2023-09-19T13:25:09;97961.00;;;24.90
7389;BMP180;3735;50.136;11.062;2023-09-19T13:27:57;97967.00;;;24.70
7389;BMP180;3735;50.136;11.062;2023-09-19T13:30:26;97967.00;;;24.10
7389;BMP180;3735;50.136;11.062;2023-09-19T13:33:05;97969.00;;;23.90
7389;BMP180;3735;50.136;11.062;2023-09-19T13:35:35;97966.00;;;23.40
7389;BMP180;3735;50.136;11.062;2023-09-19T13:38:04;97971.00;;;23.70
7389;BMP180;3735;50.136;11.062;2023-09-19T13:40:30;97974.00;;;23.90
7389;BMP180;3735;50.136;11.062;2023-09-19T13:43:01;97965.00;;;23.70
7389;BMP180;3735;50.136;11.062;2023-09-19T13:45:26;97963.00;;;23.90
7389;BMP180;3735;50.136;11.062;2023-09-19T13:47:52;97971.00;;;23.70
7389;BMP180;3735;50.136;11.062;2023-09-19T13:50:19;97959.00;;;24.20
7389;BMP180;3735;50.136;11.062;2023-09-19T13:52:50;97962.00;;;24.60
7389;BMP180;3735;50.136;11.062;2023-09-19T13:55:17;97970.00;;;24.30
7389;BMP180;3735;50.136;11.062;2023-09-19T13:57:49;97964.00;;;24.20
7389;BMP180;3735;50.136;11.062;2023-09-19T14:00:22;97974.00;;;23.40
7389;BMP180;3735;50.136;11.062;2023-09-19T14:02:48;97970.00;;;23.20
7389;BMP180;3735;50.136;11.062;2023-09-19T14:05:15;97968.00;;;24.00
7389;BMP180;3735;50.136;11.062;2023-09-19T14:07:43;97964.00;;;24.20
7389;BMP180;3735;50.136;11.062;2023-09-19T14:10:10;97970.00;;;24.40
7389;BMP180;3735;50.136;11.062;2023-09-19T14:12:39;97960.00;;;24.50
7389;BMP180;3735;50.136;11.062;2023-09-19T14:15:08;97959.00;;;25.50
7389;BMP180;3735;50.136;11.062;2023-09-19T14:17:34;97963.00;;;24.60
7389;BMP180;3735;50.136;11.062;2023-09-19T14:20:00;97965.00;;;24.30
7389;BMP180;3735;50.136;11.062;2023-09-19T14:22:26;97967.00;;;23.40
7389;BMP180;3735;50.136;11.062;2023-09-19T14:24:52;97961.00;;;23.70
7389;BMP180;3735;50.136;11.062;2023-09-19T14:27:18;97972.00;;;23.30
7389;BMP180;3735;50.136;11.062;2023-09-19T14:29:44;97961.00;;;23.90
7389;BMP180;3735;50.136;11.062;2023-09-19T14:32:10;97966.00;;;23.30
7389;BMP180;3735;50.136;11.062;2023-09-19T14:34:36;97960.00;;;23.80
7389;BMP180;3735;50.136;11.062;2023-09-19T14:37:08;97968.00;;;23.30
7389;BMP180;3735;50.136;11.062;2023-09-19T14:39:33;97975.00;;;23.70
7389;BMP180;3735;50.136;11.062;2023-09-19T14:41:59;97970.00;;;23.50
7389;BMP180;3735;50.136;11.062;2023-09-19T14:44:25;97971.00;;;24.20
7389;BMP180;3735;50.136;11.062;2023-09-19T14:46:51;97962.00;;;23.30
7389;BMP180;3735;50.136;11.062;2023-09-19T14:49:17;97964.00;;;23.30
7389;BMP180;3735;50.136;11.062;2023-09-19T14:51:42;97969.00;;;22.60
7389;BMP180;3735;50.136;11.062;2023-09-19T14:54:09;97959.00;;;22.90
7389;BMP180;3735;50.136;11.062;2023-09-19T14:56:35;97962.00;;;22.80
7389;BMP180;3735;50.136;11.062;2023-09-19T14:59:01;97959.00;;;22.80
7389;BMP180;3735;50.136;11.062;2023-09-19T15:01:28;97948.00;;;22.60
7389;BMP180;3735;50.136;11.062;2023-09-19T15:03:53;97958.00;;;22.70
7389;BMP180;3735;50.136;11.062;2023-09-19T15:06:21;97950.00;;;22.70
7389;BMP180;3735;50.136;11.062;2023-09-19T15:08:47;97956.00;;;22.90
7389;BMP180;3735;50.136;11.062;2023-09-19T15:11:15;97951.00;;;23.10
7389;BMP180;3735;50.136;11.062;2023-09-19T15:13:44;97954.00;;;22.70
7389;BMP180;3735;50.136;11.062;2023-09-19T15:16:11;97957.00;;;22.20
7389;BMP180;3735;50.136;11.062;2023-09-19T15:18:44;97949.00;;;22.00
7389;BMP180;3735;50.136;11.062;2023-09-19T15:21:12;97948.00;;;22.20
7389;BMP180;3735;50.136;11.062;2023-09-19T15:23:41;97947.00;;;22.30
7389;BMP180;3735;50.136;11.062;2023-09-19T15:26:09;97941.00;;;22.80
7389;BMP180;3735;50.136;11.062;2023-09-19T15:28:37;97935.00;;;23.10
7389;BMP180;3735;50.136;11.062;2023-09-19T15:31:11;97942.00;;;23.40